Time;durP1;ratioP1;P1;durP2;ratioP2;P2;SDS_P1;SDS_P2;PMS_P1;PMS_P2;Temp;Humidity;BMP_temperature;BMP_pressure;BME280_temperature;BME280_humidity;BME280_pressure;Samples;Min_cycle;Max_cycle;Signal;HPM_P1;HPM_P2
2023/03/27 00:00:55;;;;;;;7.45;6.18;;;7.70;99.90;;;;;;2094558;28;20066;-77
2023/03/27 00:01:56;;;;;;;8.25;6.10;;;7.70;99.90;;;;;;2088931;28;20040;-78
2023/03/27 00:02:57;;;;;;;9.07;6.32;;;7.70;99.90;;;;;;2086969;28;20033;-77
2023/03/27 00:03:59;;;;;;;7.63;6.15;;;7.70;99.90;;;;;;2086905;28;20144;-78
2023/03/27 00:05:00;;;;;;;7.80;6.13;;;7.70;99.90;;;;;;2095830;28;20028;-78
2023/03/27 00:06:08;;;;;;;7.72;6.10;;;7.70;99.90;;;;;;2097044;28;20029;-78
2023/03/27 00:07:09;;;;;;;8.55;6.68;;;7.70;99.90;;;;;;2093189;28;20031;-77
2023/03/27 00:08:09;;;;;;;8.48;6.47;;;7.70;99.90;;;;;;2091728;28;20048;-78
2023/03/27 00:09:10;;;;;;;7.97;6.22;;;7.70;99.90;;;;;;2088611;28;20028;-77
2023/03/27 00:10:11;;;;;;;7.82;6.18;;;7.60;99.90;;;;;;2091375;28;20662;-77
2023/03/27 00:11:12;;;;;;;9.50;6.80;;;7.60;99.90;;;;;;2085169;28;20024;-78
2023/03/27 00:12:13;;;;;;;10.45;7.00;;;7.60;99.90;;;;;;2085280;28;20057;-77
2023/03/27 00:13:13;;;;;;;9.45;6.65;;;7.60;99.90;;;;;;2088295;28;20722;-77
2023/03/27 00:14:14;;;;;;;9.05;6.63;;;7.60;99.90;;;;;;2083436;28;20814;-77
2023/03/27 00:15:16;;;;;;;9.82;6.95;;;7.60;99.90;;;;;;2093400;28;20020;-78
2023/03/27 00:16:17;;;;;;;10.13;7.10;;;7.60;99.90;;;;;;2095041;28;20024;-77
2023/03/27 00:17:18;;;;;;;9.73;6.97;;;7.60;99.90;;;;;;2096681;28;20032;-78
2023/03/27 00:18:20;;;;;;;8.93;6.82;;;7.60;99.90;;;;;;2094528;28;20032;-78
2023/03/27 00:19:21;;;;;;;8.05;6.30;;;7.70;99.90;;;;;;2085350;28;20021;-77
2023/03/27 00:20:22;;;;;;;7.60;6.30;;;7.70;99.90;;;;;;2085229;28;20071;-79
2023/03/27 00:21:24;;;;;;;5.93;5.28;;;7.70;99.90;;;;;;2094728;28;20480;-78
2023/03/27 00:22:25;;;;;;;6.55;5.18;;;7.70;99.90;;;;;;2094117;28;20044;-78
2023/03/27 00:23:30;;;;;;;5.30;4.50;;;7.70;99.90;;;;;;2096975;28;20430;-79
2023/03/27 00:24:31;;;;;;;4.88;3.95;;;7.70;99.90;;;;;;2096855;28;20066;-78
2023/03/27 00:25:32;;;;;;;4.65;3.97;;;7.70;99.90;;;;;;2096338;28;20039;-78
2023/03/27 00:26:33;;;;;;;4.40;3.60;;;7.60;99.90;;;;;;2097427;28;20056;-78
2023/03/27 00:27:33;;;;;;;4.78;3.50;;;7.60;99.90;;;;;;2098392;28;20093;-77
2023/03/27 00:28:35;;;;;;;4.70;3.40;;;7.60;99.90;;;;;;2094478;28;20073;-78
2023/03/27 00:29:36;;;;;;;6.15;3.70;;;7.60;99.90;;;;;;2094833;28;20027;-76
2023/03/27 00:30:36;;;;;;;4.55;3.42;;;7.60;99.90;;;;;;2085668;28;20064;-76
2023/03/27 00:31:37;;;;;;;3.92;3.50;;;7.60;99.90;;;;;;2085790;28;20025;-76
2023/03/27 00:32:38;;;;;;;4.03;3.20;;;7.60;99.90;;;;;;2085049;28;20086;-76
2023/03/27 00:33:39;;;;;;;4.05;3.40;;;7.60;99.90;;;;;;2087910;28;20075;-77
2023/03/27 00:34:40;;;;;;;4.60;3.50;;;7.60;99.90;;;;;;2095531;28;20107;-76
2023/03/27 00:35:45;;;;;;;4.75;3.58;;;7.60;99.90;;;;;;2087887;28;20039;-76
2023/03/27 00:36:49;;;;;;;5.03;3.60;;;7.60;99.90;;;;;;2084281;28;20420;-77
2023/03/27 00:37:50;;;;;;;4.60;3.58;;;7.60;99.90;;;;;;2095728;28;20034;-76
2023/03/27 00:38:51;;;;;;;4.28;3.50;;;7.60;99.90;;;;;;2096802;28;20027;-76
2023/03/27 00:39:52;;;;;;;4.03;3.42;;;7.60;99.90;;;;;;2091656;28;20016;-77
2023/03/27 00:40:54;;;;;;;3.92;3.35;;;7.60;99.90;;;;;;2094377;28;20024;-75
2023/03/27 00:41:54;;;;;;;4.32;3.47;;;7.60;99.90;;;;;;2094408;28;20040;-78
2023/03/27 00:42:56;;;;;;;3.95;3.30;;;7.60;99.90;;;;;;2085282;28;20025;-75
2023/03/27 00:43:57;;;;;;;3.50;3.20;;;7.50;99.90;;;;;;2085314;28;20032;-77
2023/03/27 00:44:58;;;;;;;4.05;3.28;;;7.50;99.90;;;;;;2094069;28;20624;-75
2023/03/27 00:46:20;;;;;;;3.47;3.17;;;7.50;99.90;;;;;;2097266;28;20036;-77
2023/03/27 00:47:29;;;;;;;12.63;5.00;;;7.50;99.90;;;;;;2091294;28;20403;-75
2023/03/27 00:48:33;;;;;;;13.43;5.53;;;7.50;99.90;;;;;;2085120;28;20025;-76
2023/03/27 00:49:36;;;;;;;12.15;5.72;;;7.30;99.90;;;;;;2088031;28;20036;-75
2023/03/27 00:50:40;;;;;;;13.27;6.30;;;7.10;99.90;;;;;;2088496;28;20037;-77
2023/03/27 00:51:45;;;;;;;20.92;7.55;;;6.80;99.90;;;;;;2083732;28;20025;-76
2023/03/27 00:52:50;;;;;;;15.57;7.40;;;6.60;99.90;;;;;;2086250;28;20428;-78
2023/03/27 00:53:52;;;;;;;20.58;7.90;;;6.40;99.90;;;;;;2093601;28;20033;-79
2023/03/27 00:54:52;;;;;;;19.92;8.00;;;6.20;99.90;;;;;;2097968;28;20028;-79
2023/03/27 00:55:57;;;;;;;22.15;8.68;;;6.00;99.90;;;;;;2093380;28;20055;-78
2023/03/27 00:57:04;;;;;;;21.63;8.98;;;5.90;99.90;;;;;;2085532;28;20600;-79
2023/03/27 00:58:11;;;;;;;28.60;9.80;;;5.80;99.90;;;;;;2096327;28;20020;-78
2023/03/27 00:59:16;;;;;;;24.58;9.93;;;5.70;99.90;;;;;;2087127;28;20806;-79
2023/03/27 01:00:17;;;;;;;23.45;9.60;;;5.60;99.90;;;;;;2087724;28;20029;-78
2023/03/27 01:01:21;;;;;;;21.40;10.10;;;5.50;99.90;;;;;;2095838;28;20038;-79
2023/03/27 01:02:22;;;;;;;19.40;8.57;;;5.50;99.90;;;;;;2097612;28;20115;-81
2023/03/27 01:03:26;;;;;;;20.65;9.00;;;5.40;99.90;;;;;;2089601;28;20024;-80
2023/03/27 01:04:27;;;;;;;25.90;9.02;;;5.30;99.90;;;;;;2089206;28;20033;-81
2023/03/27 01:05:28;;;;;;;26.17;10.00;;;5.20;99.90;;;;;;2086442;28;20032;-78
2023/03/27 01:06:30;;;;;;;28.75;9.50;;;5.20;99.90;;;;;;2089278;28;20150;-82
2023/03/27 01:07:32;;;;;;;22.45;8.68;;;5.10;99.90;;;;;;2087545;28;20016;-83
2023/03/27 01:08:36;;;;;;;24.52;8.68;;;5.00;99.90;;;;;;2089194;28;20044;-82
2023/03/27 01:09:37;;;;;;;27.17;9.15;;;4.80;99.90;;;;;;2088315;28;20411;-83
2023/03/27 01:10:48;;;;;;;28.00;8.85;;;4.80;99.90;;;;;;2087056;28;20063;-82
2023/03/27 01:11:52;;;;;;;26.60;9.00;;;4.70;99.90;;;;;;2087549;28;20017;-84
2023/03/27 01:13:05;;;;;;;29.42;9.00;;;4.60;99.90;;;;;;2093933;28;20063;-83
2023/03/27 01:14:15;;;;;;;26.05;8.85;;;4.50;99.90;;;;;;2083674;28;20033;-82
2023/03/27 01:15:34;;;;;;;25.98;8.90;;;4.30;99.90;;;;;;2081545;28;20032;-79
2023/03/27 01:17:10;;;;;;;31.30;9.00;;;4.20;99.90;;;;;;2085218;28;20040;-84
2023/03/27 01:18:24;;;;;;;31.55;8.35;;;4.20;99.90;;;;;;2072753;28;20120;-80
2023/03/27 01:19:56;;;;;;;25.77;8.23;;;4.10;99.90;;;;;;2086263;28;20522;-83
2023/03/27 01:21:15;;;;;;;20.20;7.40;;;4.00;99.90;;;;;;2078472;28;20021;-83
2023/03/27 01:22:38;;;;;;;28.55;7.65;;;3.90;99.90;;;;;;2069993;28;20057;-81
2023/03/27 01:24:04;;;;;;;29.95;7.72;;;3.80;99.90;;;;;;2079881;28;20032;-82
2023/03/27 01:25:27;;;;;;;26.23;7.22;;;3.80;99.90;;;;;;2075589;28;20025;-80
2023/03/27 01:27:02;;;;;;;25.60;7.18;;;3.70;99.90;;;;;;2090128;28;20033;-81
2023/03/27 01:28:36;;;;;;;31.48;6.75;;;3.70;99.90;;;;;;2086621;28;20410;-82
2023/03/27 01:29:57;;;;;;;28.25;7.13;;;3.60;99.90;;;;;;2079107;28;20144;-81
2023/03/27 01:31:24;;;;;;;35.58;7.70;;;3.50;99.90;;;;;;2082561;28;20032;-83
2023/03/27 01:33:06;;;;;;;23.77;6.85;;;3.50;99.90;;;;;;2080964;28;20278;-81
2023/03/27 01:34:24;;;;;;;25.13;6.90;;;3.50;99.90;;;;;;2088253;28;20028;-83
2023/03/27 01:35:45;;;;;;;20.90;6.60;;;3.40;99.90;;;;;;2084562;28;20029;-78
2023/03/27 01:36:57;;;;;;;23.80;6.63;;;3.40;99.90;;;;;;2081776;28;20543;-80
2023/03/27 01:38:05;;;;;;;24.17;6.35;;;3.40;99.90;;;;;;2079519;28;20080;-79
2023/03/27 01:39:13;;;;;;;22.77;7.05;;;3.30;99.90;;;;;;2076317;28;20059;-78
2023/03/27 01:40:17;;;;;;;17.85;6.15;;;3.20;99.90;;;;;;2087485;28;20195;-79
2023/03/27 01:41:26;;;;;;;23.85;6.35;;;3.30;99.90;;;;;;2080461;28;20025;-79
2023/03/27 01:42:52;;;;;;;29.27;6.43;;;3.20;99.90;;;;;;2086598;28;20040;-80
2023/03/27 01:44:03;;;;;;;22.38;6.30;;;3.20;99.90;;;;;;2088198;28;20062;-80
2023/03/27 01:45:18;;;;;;;23.33;6.63;;;3.20;99.90;;;;;;2084457;28;20116;-80
2023/03/27 01:46:33;;;;;;;22.67;6.55;;;3.20;99.90;;;;;;2080561;28;20027;-80
2023/03/27 01:47:45;;;;;;;28.52;6.82;;;3.20;99.90;;;;;;2070971;28;20085;-78
2023/03/27 01:49:00;;;;;;;30.48;6.45;;;3.10;99.90;;;;;;2074474;28;20064;-78
2023/03/27 01:50:15;;;;;;;27.95;6.72;;;3.10;99.90;;;;;;2085833;28;20025;-78
2023/03/27 01:51:21;;;;;;;26.45;6.60;;;3.00;99.90;;;;;;2082952;28;20048;-77
2023/03/27 01:52:28;;;;;;;33.50;7.15;;;3.00;99.90;;;;;;2078087;28;20052;-82
2023/03/27 01:53:38;;;;;;;20.58;6.72;;;3.00;99.90;;;;;;2087362;28;20118;-79
2023/03/27 01:54:46;;;;;;;24.38;6.88;;;3.00;99.90;;;;;;2095597;28;20040;-81
2023/03/27 01:55:57;;;;;;;22.63;6.70;;;3.00;99.90;;;;;;2086185;28;20029;-83
2023/03/27 01:57:02;;;;;;;25.00;6.82;;;3.00;99.90;;;;;;2087942;28;20029;-82
2023/03/27 01:58:12;;;;;;;27.95;6.72;;;3.00;99.90;;;;;;2087021;28;20025;-82
2023/03/27 01:59:16;;;;;;;22.42;6.88;;;3.10;99.90;;;;;;2079432;28;20527;-82
2023/03/27 02:00:21;;;;;;;23.70;7.35;;;3.10;99.90;;;;;;2070505;28;20052;-78
2023/03/27 02:01:28;;;;;;;26.73;6.97;;;3.00;99.90;;;;;;2079824;28;20104;-83
2023/03/27 02:02:31;;;;;;;24.05;7.03;;;3.00;99.90;;;;;;2085597;28;20147;-81
2023/03/27 02:03:38;;;;;;;29.50;7.35;;;3.10;99.90;;;;;;2093946;28;20452;-83
2023/03/27 02:04:45;;;;;;;33.35;7.65;;;3.10;99.90;;;;;;2089425;28;20020;-80
2023/03/27 02:06:04;;;;;;;32.28;7.35;;;3.00;99.90;;;;;;2087503;28;20021;-83
2023/03/27 02:07:11;;;;;;;29.92;8.10;;;3.00;99.90;;;;;;2068479;28;20054;-79
2023/03/27 02:08:17;;;;;;;23.00;7.22;;;2.90;99.90;;;;;;2066418;28;20081;-82
2023/03/27 02:09:21;;;;;;;22.45;7.00;;;2.90;99.90;;;;;;2068856;28;20587;-79
2023/03/27 02:10:28;;;;;;;28.15;7.70;;;2.90;99.90;;;;;;2078216;28;20201;-79
2023/03/27 02:11:33;;;;;;;22.50;7.50;;;2.90;99.90;;;;;;2081279;28;20044;-82
2023/03/27 02:12:37;;;;;;;26.27;7.50;;;2.90;99.90;;;;;;2079993;28;20032;-83
2023/03/27 02:13:52;;;;;;;25.50;7.85;;;3.00;99.90;;;;;;2079454;28;20037;-83
2023/03/27 02:14:55;;;;;;;24.83;8.07;;;3.00;99.90;;;;;;2080741;28;20091;-82
2023/03/27 02:15:58;;;;;;;23.80;8.00;;;3.00;99.90;;;;;;2079251;28;20073;-80
2023/03/27 02:17:06;;;;;;;22.05;8.23;;;3.00;99.90;;;;;;2087446;28;20028;-78
2023/03/27 02:18:11;;;;;;;19.58;8.52;;;3.00;99.90;;;;;;2088045;28;20581;-78
2023/03/27 02:19:18;;;;;;;30.90;8.75;;;2.90;99.90;;;;;;2088404;28;20062;-78
2023/03/27 02:20:19;;;;;;;29.48;8.63;;;2.80;99.90;;;;;;2096400;28;20518;-78
2023/03/27 02:21:22;;;;;;;21.85;9.02;;;2.80;99.90;;;;;;2097105;28;20157;-79
2023/03/27 02:22:23;;;;;;;24.15;8.77;;;2.80;99.90;;;;;;2084246;28;20575;-79
2023/03/27 02:23:25;;;;;;;26.88;8.25;;;2.80;99.90;;;;;;2086244;28;20510;-78
2023/03/27 02:24:25;;;;;;;23.02;8.40;;;2.80;99.90;;;;;;2086486;28;20112;-77
2023/03/27 02:25:27;;;;;;;25.90;7.80;;;2.80;99.90;;;;;;2077701;28;20382;-77
2023/03/27 02:26:29;;;;;;;26.83;8.05;;;2.90;99.90;;;;;;2075054;28;20032;-78
2023/03/27 02:27:43;;;;;;;33.28;8.75;;;2.90;99.90;;;;;;2089064;28;20565;-78
2023/03/27 02:29:03;;;;;;;17.83;7.45;;;2.90;99.90;;;;;;2079389;28;20029;-79
2023/03/27 02:30:23;;;;;;;22.30;7.20;;;2.90;99.90;;;;;;2075610;28;20559;-78
2023/03/27 02:31:27;;;;;;;;;;;2.90;99.90;;;;;;2086839;28;20125;-78
2023/03/27 02:32:42;;;;;;;19.20;6.75;;;2.90;99.90;;;;;;2078408;28;19909;-78
2023/03/27 02:34:05;;;;;;;25.33;8.23;;;3.00;99.90;;;;;;2079992;28;20609;-78
2023/03/27 02:35:21;;;;;;;25.60;7.63;;;3.00;99.90;;;;;;2078938;28;20054;-78
2023/03/27 02:36:31;;;;;;;24.83;7.43;;;3.00;99.90;;;;;;2066991;28;20090;-79
2023/03/27 02:37:45;;;;;;;25.38;7.78;;;3.10;99.90;;;;;;2074041;28;20392;-78
2023/03/27 02:39:10;;;;;;;17.80;6.82;;;3.10;99.90;;;;;;2082747;28;20775;-80
2023/03/27 02:40:36;;;;;;;22.70;6.97;;;3.10;99.90;;;;;;2089633;28;20086;-78
2023/03/27 02:42:04;;;;;;;22.85;6.90;;;3.10;99.90;;;;;;2093783;28;20040;-80
2023/03/27 02:43:31;;;;;;;18.38;6.50;;;3.10;99.90;;;;;;2087686;28;20021;-79
2023/03/27 02:44:37;;;;;;;;;;;3.00;99.90;;;;;;2090234;28;20060;-79
2023/03/27 02:45:42;;;;;;;22.08;6.57;;;3.00;99.90;;;;;;2080387;28;19948;-80
2023/03/27 02:46:53;;;;;;;18.42;6.43;;;3.00;99.90;;;;;;2080362;28;20056;-80
2023/03/27 02:48:03;;;;;;;22.08;6.70;;;3.00;99.90;;;;;;2089665;28;20032;-81
2023/03/27 02:49:13;;;;;;;24.93;6.67;;;3.00;99.90;;;;;;2090698;28;20027;-79
2023/03/27 02:50:33;;;;;;;26.95;6.93;;;3.00;99.90;;;;;;2078165;28;20281;-80
2023/03/27 02:51:48;;;;;;;29.67;7.05;;;3.10;99.90;;;;;;2083671;28;20086;-80
2023/03/27 02:52:56;;;;;;;29.25;8.48;;;3.10;99.90;;;;;;2080303;28;20048;-80
2023/03/27 02:54:05;;;;;;;26.17;7.88;;;3.10;99.90;;;;;;2086157;28;20047;-80
2023/03/27 02:55:15;;;;;;;22.52;7.78;;;3.00;99.90;;;;;;2080166;28;20087;-80
2023/03/27 02:56:18;;;;;;;25.13;8.77;;;3.00;99.90;;;;;;2077763;28;20551;-80
2023/03/27 02:57:25;;;;;;;27.95;8.60;;;3.00;99.90;;;;;;2079240;28;20025;-80
2023/03/27 02:58:59;;;;;;;26.02;9.35;;;3.00;99.90;;;;;;2081027;28;20033;-78
2023/03/27 03:00:30;;;;;;;36.65;9.95;;;3.00;99.90;;;;;;2083343;28;20299;-80
2023/03/27 03:01:50;;;;;;;27.75;10.10;;;3.00;99.90;;;;;;2086325;28;20031;-80
2023/03/27 03:03:10;;;;;;;24.73;9.85;;;2.90;99.90;;;;;;2077071;28;20543;-80
2023/03/27 03:04:27;;;;;;;28.45;10.70;;;2.90;99.90;;;;;;2080068;28;20033;-78
2023/03/27 03:06:09;;;;;;;27.08;10.07;;;2.90;99.90;;;;;;2074976;28;20036;-78
2023/03/27 03:07:13;;;;;;;27.13;11.05;;;2.90;99.90;;;;;;2095897;28;20024;-78
2023/03/27 03:08:13;;;;;;;27.17;11.88;;;2.90;99.90;;;;;;2085858;28;20123;-77
2023/03/27 03:09:15;;;;;;;25.60;10.80;;;2.90;99.90;;;;;;2083588;28;20027;-78
2023/03/27 03:10:15;;;;;;;32.90;11.30;;;2.90;99.90;;;;;;2077366;28;20025;-79
2023/03/27 03:11:16;;;;;;;22.83;10.48;;;2.90;99.90;;;;;;2077704;28;20025;-80
2023/03/27 03:12:17;;;;;;;29.10;11.35;;;3.00;99.90;;;;;;2087794;28;20020;-77
2023/03/27 03:13:19;;;;;;;29.77;11.90;;;3.00;99.90;;;;;;2088979;28;20395;-76
2023/03/27 03:14:25;;;;;;;29.48;11.60;;;2.90;99.90;;;;;;2087127;28;20028;-77
2023/03/27 03:15:25;;;;;;;26.58;11.10;;;2.90;99.90;;;;;;2086548;28;20040;-78
2023/03/27 03:16:28;;;;;;;33.80;12.18;;;2.90;99.90;;;;;;2078486;28;20037;-78
2023/03/27 03:17:29;;;;;;;34.00;11.93;;;2.90;99.90;;;;;;2078960;28;20037;-78
2023/03/27 03:18:29;;;;;;;28.27;10.98;;;2.90;99.90;;;;;;2078719;28;20035;-78
2023/03/27 03:19:32;;;;;;;27.65;11.00;;;2.80;99.90;;;;;;2088330;28;20028;-77
2023/03/27 03:20:34;;;;;;;26.63;10.23;;;2.80;99.90;;;;;;2077571;28;20057;-78
2023/03/27 03:21:35;;;;;;;25.95;10.25;;;2.80;99.90;;;;;;2069678;28;20659;-79
2023/03/27 03:22:38;;;;;;;27.58;9.98;;;2.80;99.90;;;;;;2081200;28;20056;-79
2023/03/27 03:23:39;;;;;;;19.88;9.65;;;2.80;99.90;;;;;;2080660;28;20025;-80
2023/03/27 03:24:42;;;;;;;25.55;9.98;;;2.80;99.90;;;;;;2079173;28;20030;-78
2023/03/27 03:25:51;;;;;;;23.23;9.35;;;2.80;99.90;;;;;;2082386;28;20033;-79
2023/03/27 03:26:51;;;;;;;17.30;8.73;;;2.90;99.90;;;;;;2083077;28;20032;-80
2023/03/27 03:27:57;;;;;;;23.45;9.40;;;2.90;99.90;;;;;;2087208;28;20486;-80
2023/03/27 03:28:57;;;;;;;23.73;8.93;;;2.90;99.90;;;;;;2084965;28;20024;-79
2023/03/27 03:30:03;;;;;;;23.05;9.25;;;2.80;99.90;;;;;;2078673;28;20060;-78
2023/03/27 03:31:09;;;;;;;17.90;9.00;;;2.80;99.90;;;;;;2081380;28;20037;-79
2023/03/27 03:32:10;;;;;;;21.33;8.80;;;2.80;99.90;;;;;;2083030;28;20135;-80
2023/03/27 03:33:13;;;;;;;21.23;9.38;;;2.90;99.90;;;;;;2077860;28;20033;-80
2023/03/27 03:34:17;;;;;;;30.85;13.75;;;2.90;99.90;;;;;;2086224;28;20133;-78
2023/03/27 03:35:17;;;;;;;27.88;12.40;;;2.90;99.90;;;;;;2079918;28;20399;-80
2023/03/27 03:36:18;;;;;;;23.83;11.85;;;3.00;99.90;;;;;;2077983;28;20036;-81
2023/03/27 03:37:19;;;;;;;22.35;10.77;;;3.00;99.90;;;;;;2086443;28;20036;-79
2023/03/27 03:38:23;;;;;;;23.80;10.50;;;3.10;99.90;;;;;;2088238;28;20033;-79
2023/03/27 03:39:24;;;;;;;18.42;9.57;;;3.10;99.90;;;;;;2097968;28;20024;-80
2023/03/27 03:40:26;;;;;;;20.02;9.20;;;3.10;99.90;;;;;;2087568;28;20578;-79
2023/03/27 03:41:30;;;;;;;24.60;9.57;;;3.10;99.90;;;;;;2088691;28;20036;-81
2023/03/27 03:42:34;;;;;;;25.30;9.80;;;3.20;99.90;;;;;;2088961;28;20028;-81
2023/03/27 03:43:37;;;;;;;21.17;10.18;;;3.20;99.90;;;;;;2080976;28;20036;-80
2023/03/27 03:44:38;;;;;;;34.63;11.35;;;3.30;99.90;;;;;;2077085;28;20459;-81
2023/03/27 03:45:50;;;;;;;26.40;10.45;;;3.20;99.90;;;;;;2076458;28;20056;-81
2023/03/27 03:46:51;;;;;;;35.83;11.32;;;3.30;99.90;;;;;;2075625;28;20041;-81
2023/03/27 03:47:54;;;;;;;35.97;11.95;;;3.30;99.90;;;;;;2071027;28;20029;-81
2023/03/27 03:48:56;;;;;;;28.65;10.88;;;3.20;99.90;;;;;;2073479;28;20024;-81
2023/03/27 03:49:57;;;;;;;34.17;11.88;;;3.20;99.90;;;;;;2085909;28;20112;-80
2023/03/27 03:50:58;;;;;;;29.38;11.32;;;3.20;99.90;;;;;;2089424;28;20062;-80
2023/03/27 03:51:59;;;;;;;27.00;11.63;;;3.20;99.90;;;;;;2097735;28;20521;-82
2023/03/27 03:52:59;;;;;;;25.38;10.70;;;3.20;99.90;;;;;;2074752;28;20120;-81
2023/03/27 03:54:00;;;;;;;25.50;11.23;;;3.30;99.90;;;;;;2080807;28;20101;-82
2023/03/27 03:55:03;;;;;;;28.38;11.32;;;3.30;99.90;;;;;;2082451;28;20108;-82
2023/03/27 03:56:04;;;;;;;21.52;10.43;;;3.30;99.90;;;;;;2079749;28;20021;-81
2023/03/27 03:57:07;;;;;;;35.20;11.68;;;3.20;99.90;;;;;;2077376;28;20552;-82
2023/03/27 03:58:08;;;;;;;24.90;10.10;;;3.20;99.90;;;;;;2085911;28;20231;-83
2023/03/27 03:59:10;;;;;;;25.30;10.27;;;3.20;99.90;;;;;;2084213;28;20029;-74
2023/03/27 04:00:28;;;;;;;35.45;10.55;;;3.20;99.90;;;;;;2090052;28;20066;-75
2023/03/27 04:01:31;;;;;;;25.83;9.20;;;3.20;99.90;;;;;;2089893;28;20036;-74
2023/03/27 04:02:37;;;;;;;24.40;9.48;;;3.20;99.90;;;;;;2081858;28;20514;-73
2023/03/27 04:03:41;;;;;;;25.05;8.70;;;3.10;99.90;;;;;;2082477;28;20029;-73
2023/03/27 04:04:43;;;;;;;22.33;8.32;;;3.10;99.90;;;;;;2081924;28;20562;-75
2023/03/27 04:05:46;;;;;;;20.88;7.65;;;3.10;99.90;;;;;;2082526;28;20025;-74
2023/03/27 04:06:47;;;;;;;22.52;7.60;;;3.00;99.90;;;;;;2081432;28;20025;-73
2023/03/27 04:07:48;;;;;;;21.85;8.48;;;3.00;99.90;;;;;;2079688;28;20028;-73
2023/03/27 04:08:56;;;;;;;30.00;8.80;;;3.00;99.90;;;;;;2080597;28;20156;-74
2023/03/27 04:10:17;;;;;;;20.17;7.70;;;3.00;99.90;;;;;;2077846;28;20040;-77
2023/03/27 04:11:18;;;;;;;25.17;8.05;;;3.00;99.90;;;;;;2094870;28;20024;-75
2023/03/27 04:12:39;;;;;;;26.80;7.60;;;3.00;99.90;;;;;;2085704;28;20028;-75
2023/03/27 04:13:48;;;;;;;24.42;7.50;;;3.00;99.90;;;;;;2083708;28;20423;-74
2023/03/27 04:14:59;;;;;;;20.73;7.40;;;3.00;99.90;;;;;;2090034;28;20375;-74
2023/03/27 04:16:23;;;;;;;21.48;7.20;;;3.00;99.90;;;;;;2072715;28;20033;-74
2023/03/27 04:17:25;;;;;;;30.70;7.80;;;2.90;99.90;;;;;;2078930;28;20651;-74
2023/03/27 04:18:29;;;;;;;18.10;7.15;;;2.90;99.90;;;;;;2076996;28;20033;-75
2023/03/27 04:19:30;;;;;;;25.20;8.20;;;2.90;99.90;;;;;;2082252;28;20119;-74
2023/03/27 04:20:37;;;;;;;23.60;7.88;;;2.90;99.90;;;;;;2082347;28;20072;-75
2023/03/27 04:21:41;;;;;;;22.67;8.15;;;2.90;99.90;;;;;;2086688;28;20044;-74
2023/03/27 04:22:47;;;;;;;21.83;7.60;;;2.90;99.90;;;;;;2077966;28;20029;-75
2023/03/27 04:23:50;;;;;;;19.60;7.25;;;2.90;99.90;;;;;;2081881;28;20027;-74
2023/03/27 04:24:56;;;;;;;23.38;8.15;;;3.00;99.90;;;;;;2081973;28;20032;-74
2023/03/27 04:26:02;;;;;;;18.52;7.45;;;3.00;99.90;;;;;;2082578;28;20399;-76
2023/03/27 04:27:22;;;;;;;23.67;8.40;;;3.00;99.90;;;;;;2087799;28;20191;-76
2023/03/27 04:28:33;;;;;;;25.85;8.35;;;3.00;99.90;;;;;;2090176;28;20320;-76
2023/03/27 04:29:46;;;;;;;19.42;8.23;;;3.00;99.90;;;;;;2084743;28;20155;-76
2023/03/27 04:31:06;;;;;;;27.13;7.95;;;3.00;99.90;;;;;;2094192;28;20119;-75
2023/03/27 04:32:28;;;;;;;23.17;7.80;;;3.00;99.90;;;;;;2087921;28;20037;-76
2023/03/27 04:34:03;;;;;;;28.90;9.23;;;3.00;99.90;;;;;;2093437;28;20051;-76
2023/03/27 04:35:36;;;;;;;20.10;8.27;;;3.00;99.90;;;;;;2088746;28;20521;-75
2023/03/27 04:36:46;;;;;;;24.40;8.25;;;3.00;99.90;;;;;;2083103;28;21106;-76
2023/03/27 04:37:49;;;;;;;24.13;8.13;;;3.00;99.90;;;;;;2089935;28;20102;-75
2023/03/27 04:39:09;;;;;;;20.58;8.23;;;3.00;99.90;;;;;;2083758;28;20021;-76
2023/03/27 04:40:12;;;;;;;19.05;8.18;;;3.00;99.90;;;;;;2077403;28;20035;-76
2023/03/27 04:41:12;;;;;;;30.42;9.07;;;3.00;99.90;;;;;;2080925;28;20193;-76
2023/03/27 04:42:14;;;;;;;25.73;8.50;;;3.00;99.90;;;;;;2079621;28;20581;-75
2023/03/27 04:43:16;;;;;;;31.35;9.93;;;2.90;99.90;;;;;;2090079;28;20020;-74
2023/03/27 04:44:17;;;;;;;24.90;9.15;;;3.00;99.90;;;;;;2090193;28;20701;-75
2023/03/27 04:45:19;;;;;;;27.48;9.45;;;3.10;99.90;;;;;;2098691;28;20070;-74
2023/03/27 04:46:22;;;;;;;29.33;9.82;;;3.10;99.90;;;;;;2090008;28;20543;-74
2023/03/27 04:47:28;;;;;;;17.58;8.60;;;3.20;99.90;;;;;;2077567;28;20044;-74
2023/03/27 04:48:36;;;;;;;23.67;8.93;;;3.20;99.90;;;;;;2091908;28;20025;-75
2023/03/27 04:49:49;;;;;;;24.38;8.65;;;3.20;99.90;;;;;;2071475;28;20029;-73
2023/03/27 04:50:54;;;;;;;31.92;9.82;;;3.10;99.90;;;;;;2063858;28;20035;-76
2023/03/27 04:52:07;;;;;;;21.17;8.43;;;3.10;99.90;;;;;;2078471;28;20040;-75
2023/03/27 04:53:07;;;;;;;21.08;8.38;;;3.10;99.90;;;;;;2078595;28;20036;-76
2023/03/27 04:54:16;;;;;;;31.45;9.73;;;3.10;99.90;;;;;;2081623;28;20052;-76
2023/03/27 04:55:21;;;;;;;24.40;9.93;;;3.10;99.90;;;;;;2087187;28;20689;-74
2023/03/27 04:56:23;;;;;;;26.50;10.30;;;3.10;99.90;;;;;;2083660;28;20407;-76
2023/03/27 04:57:29;;;;;;;27.17;10.40;;;3.00;99.90;;;;;;2078649;28;20116;-75
2023/03/27 04:58:32;;;;;;;19.80;9.90;;;3.00;99.90;;;;;;2086561;28;20021;-76
2023/03/27 04:59:33;;;;;;;28.30;10.13;;;3.00;99.90;;;;;;2086667;28;20040;-75
2023/03/27 05:00:54;;;;;;;28.90;10.40;;;3.00;99.90;;;;;;2089253;28;20029;-75
2023/03/27 05:02:33;;;;;;;30.10;10.88;;;3.00;99.90;;;;;;2075721;28;20059;-75
2023/03/27 05:03:44;;;;;;;;;;;3.00;99.90;;;;;;2085516;28;20059;-75
2023/03/27 05:04:57;;;;;;;25.08;9.38;;;3.00;99.90;;;;;;2085943;28;19931;-74
2023/03/27 05:06:05;;;;;;;29.27;10.30;;;3.00;99.90;;;;;;2085038;28;20025;-74
2023/03/27 05:07:05;;;;;;;24.48;9.57;;;3.00;99.90;;;;;;2085048;28;20108;-75
2023/03/27 05:08:06;;;;;;;21.55;10.40;;;3.00;99.90;;;;;;2076238;28;20037;-74
2023/03/27 05:09:07;;;;;;;19.02;9.05;;;3.00;99.90;;;;;;2070611;28;20017;-75
2023/03/27 05:10:09;;;;;;;20.80;8.95;;;3.00;99.90;;;;;;2075234;28;20132;-75
2023/03/27 05:11:10;;;;;;;24.60;9.45;;;3.00;99.90;;;;;;2078199;28;20171;-75
2023/03/27 05:12:15;;;;;;;26.77;9.40;;;3.00;99.90;;;;;;2079472;28;20520;-76
2023/03/27 05:13:24;;;;;;;21.42;9.88;;;2.90;99.90;;;;;;2079288;28;20420;-76
2023/03/27 05:14:25;;;;;;;24.52;9.57;;;2.80;99.90;;;;;;2086254;28;20028;-77
2023/03/27 05:15:31;;;;;;;26.25;9.57;;;2.80;99.90;;;;;;2080163;28;20040;-74
2023/03/27 05:16:34;;;;;;;22.98;8.60;;;2.80;99.90;;;;;;2083478;28;20041;-75
2023/03/27 05:17:43;;;;;;;20.60;9.02;;;2.80;99.90;;;;;;2081718;28;20426;-75
2023/03/27 05:18:44;;;;;;;20.02;9.15;;;2.80;99.90;;;;;;2077209;28;20029;-75
2023/03/27 05:19:45;;;;;;;18.52;8.85;;;2.80;99.90;;;;;;2086740;28;20021;-75
2023/03/27 05:20:48;;;;;;;20.58;8.80;;;2.80;99.90;;;;;;2088912;28;20427;-76
2023/03/27 05:21:50;;;;;;;23.63;9.45;;;2.80;99.90;;;;;;2085615;28;20499;-74
2023/03/27 05:22:55;;;;;;;22.55;9.35;;;2.80;99.90;;;;;;2080062;28;20021;-76
2023/03/27 05:24:03;;;;;;;17.60;8.48;;;2.80;99.90;;;;;;2078399;28;20452;-76
2023/03/27 05:25:04;;;;;;;21.02;8.90;;;2.80;99.90;;;;;;2081815;28;20059;-76
2023/03/27 05:26:05;;;;;;;19.27;8.65;;;2.80;99.90;;;;;;2083870;28;20132;-76
2023/03/27 05:27:26;;;;;;;20.20;8.80;;;2.80;99.90;;;;;;2086558;28;20583;-75
2023/03/27 05:28:29;;;;;;;20.42;9.70;;;2.80;99.90;;;;;;2084853;28;20125;-74
2023/03/27 05:29:30;;;;;;;30.73;10.93;;;2.70;99.90;;;;;;2083233;28;20083;-76
2023/03/27 05:30:36;;;;;;;20.95;9.38;;;2.70;99.90;;;;;;2080115;28;20111;-77
2023/03/27 05:31:56;;;;;;;26.63;9.68;;;2.70;99.90;;;;;;2081936;28;20200;-74
2023/03/27 05:33:12;;;;;;;19.40;9.18;;;2.70;99.90;;;;;;2081262;28;20032;-75
2023/03/27 05:34:14;;;;;;;21.73;8.85;;;2.70;99.90;;;;;;2083362;28;20380;-74
2023/03/27 05:35:18;;;;;;;23.77;9.73;;;2.70;99.90;;;;;;2073349;28;20025;-74
2023/03/27 05:36:21;;;;;;;23.08;9.80;;;2.70;99.90;;;;;;2076296;28;20041;-75
2023/03/27 05:37:22;;;;;;;20.23;9.60;;;2.70;99.90;;;;;;2073546;28;20029;-74
2023/03/27 05:38:52;;;;;;;23.23;9.43;;;2.70;99.90;;;;;;2077700;28;20139;-74
2023/03/27 05:40:04;;;;;;;19.92;8.98;;;2.70;99.90;;;;;;2081134;28;20029;-73
2023/03/27 05:41:06;;;;;;;24.63;9.13;;;2.70;99.90;;;;;;2080132;28;20032;-75
2023/03/27 05:42:10;;;;;;;25.52;9.02;;;2.70;99.90;;;;;;2083360;28;20041;-75
2023/03/27 05:43:11;;;;;;;21.20;8.60;;;2.70;99.90;;;;;;2084647;28;20780;-74
2023/03/27 05:44:12;;;;;;;21.23;8.50;;;2.70;99.90;;;;;;2082785;28;20116;-74
2023/03/27 05:45:17;;;;;;;19.90;8.52;;;2.70;99.90;;;;;;2084127;28;20131;-74
2023/03/27 05:46:18;;;;;;;17.08;8.18;;;2.70;99.90;;;;;;2078868;28;20443;-73
2023/03/27 05:47:25;;;;;;;18.15;8.60;;;2.70;99.90;;;;;;2085844;28;20388;-74
2023/03/27 05:48:27;;;;;;;20.63;8.82;;;2.80;99.90;;;;;;2078237;28;20112;-73
2023/03/27 05:49:33;;;;;;;19.38;8.23;;;2.70;99.90;;;;;;2083526;28;20535;-75
2023/03/27 05:50:41;;;;;;;21.60;8.32;;;2.70;99.90;;;;;;2080856;28;20017;-71
2023/03/27 05:51:51;;;;;;;18.88;8.05;;;2.60;99.90;;;;;;2081348;28;20112;-76